createdAt,value
2023-04-04T00:00:18.859Z,98548.31
2023-04-04T00:02:49.424Z,98539.91
2023-04-04T00:05:20.884Z,98536.91
2023-04-04T00:07:51.520Z,98537.44
2023-04-04T00:10:23.001Z,98542.94
2023-04-04T00:12:56.923Z,98531.19
2023-04-04T00:15:33.380Z,98539.94
2023-04-04T00:18:03.983Z,98533.00
2023-04-04T00:20:38.450Z,98522.97
2023-04-04T00:23:13.643Z,98525.97
2023-04-04T00:25:47.819Z,98524.81
2023-04-04T00:28:19.509Z,98525.09
2023-04-04T00:30:52.130Z,98522.63
2023-04-04T00:33:23.472Z,98522.00
2023-04-04T00:35:58.694Z,98534.09
2023-04-04T00:38:30.356Z,98525.97
2023-04-04T00:41:04.173Z,98521.59
2023-04-04T00:43:45.794Z,98525.44
2023-04-04T00:46:16.539Z,98538.66
2023-04-04T00:48:45.053Z,98521.13
2023-04-04T00:51:19.649Z,98521.41
2023-04-04T00:53:49.509Z,98526.59
2023-04-04T00:56:29.135Z,98525.56
2023-04-04T00:59:06.154Z,98532.41
2023-04-04T01:01:40.949Z,98521.88
2023-04-04T01:04:11.667Z,98514.53
2023-04-04T01:06:56.349Z,98510.94
2023-04-04T01:09:27.291Z,98519.28
2023-04-04T01:11:58.407Z,98516.84
2023-04-04T01:14:34.971Z,98514.13
2023-04-04T01:17:10.659Z,98523.09
2023-04-04T01:20:13.320Z,98510.31
2023-04-04T01:22:56.330Z,98510.38
2023-04-04T01:25:34.789Z,98513.81
2023-04-04T01:28:14.573Z,98508.59
2023-04-04T01:30:55.278Z,98509.56
2023-04-04T01:33:49.107Z,98512.84
2023-04-04T01:36:52.115Z,98518.16
2023-04-04T01:39:34.103Z,98514.47
2023-04-04T01:42:05.964Z,98516.56
2023-04-04T01:44:38.240Z,98520.69
2023-04-04T01:47:12.199Z,98511.63
2023-04-04T01:49:56.149Z,98490.75
2023-04-04T01:52:27.966Z,98506.59
2023-04-04T01:54:59.042Z,98507.13
2023-04-04T02:00:24.056Z,98520.06
2023-04-04T02:02:54.825Z,98441.19
2023-04-04T02:05:26.374Z,98515.00
2023-04-04T02:08:00.221Z,98515.03
2023-04-04T02:10:51.548Z,98486.56
2023-04-04T02:13:22.371Z,98502.34
2023-04-04T02:15:55.549Z,98496.41
2023-04-04T02:18:26.294Z,98482.81
2023-04-04T02:21:01.366Z,98491.75
2023-04-04T02:23:33.456Z,98499.19
2023-04-04T02:26:21.668Z,98501.91
2023-04-04T02:28:51.725Z,98483.44
2023-04-04T02:31:23.202Z,98489.59
2023-04-04T02:33:55.644Z,98494.88
2023-04-04T02:36:25.399Z,98496.41
2023-04-04T02:38:58.589Z,98494.44
2023-04-04T02:41:35.714Z,98488.31
2023-04-04T02:44:08.919Z,98490.94
2023-04-04T02:46:40.832Z,98494.25
2023-04-04T02:49:14.577Z,98491.25
2023-04-04T02:51:52.239Z,98477.97
2023-04-04T02:54:31.496Z,98479.94
2023-04-04T02:57:07.978Z,98492.53
2023-04-04T02:59:38.359Z,98474.81
2023-04-04T03:02:20.173Z,98482.31
2023-04-04T03:04:51.091Z,98493.66
2023-04-04T03:07:25.126Z,98490.75
2023-04-04T03:09:58.634Z,98480.53
2023-04-04T03:12:27.634Z,98460.97
2023-04-04T03:15:02.312Z,98482.19
2023-04-04T03:17:33.236Z,98468.50
2023-04-04T03:20:04.347Z,98479.66
2023-04-04T03:22:41.709Z,98472.66
2023-04-04T03:27:58.118Z,98442.56
2023-04-04T03:33:16.345Z,98472.22
2023-04-04T03:36:00.485Z,98479.25
2023-04-04T03:38:36.619Z,98473.66
2023-04-04T03:41:10.900Z,98444.84
2023-04-04T03:43:54.496Z,98456.50
2023-04-04T03:46:30.158Z,98479.66
2023-04-04T03:49:03.452Z,98489.03
2023-04-04T03:51:39.434Z,98475.97
2023-04-04T03:54:10.041Z,98469.28
2023-04-04T03:56:48.724Z,98477.34
2023-04-04T03:59:25.380Z,98484.47
2023-04-04T04:02:06.505Z,98476.84
2023-04-04T04:04:35.300Z,98485.84
2023-04-04T04:07:09.161Z,98484.97
2023-04-04T04:09:40.814Z,98487.03
2023-04-04T04:12:13.781Z,98487.31
2023-04-04T04:14:44.509Z,98484.88
2023-04-04T04:17:25.910Z,98483.97
2023-04-04T04:19:57.919Z,98489.44
2023-04-04T04:22:30.237Z,98460.00
2023-04-04T04:27:48.175Z,98481.97
2023-04-04T04:30:17.571Z,98474.16
2023-04-04T04:32:56.506Z,98498.28
2023-04-04T04:35:34.391Z,98509.66
2023-04-04T04:38:07.182Z,98494.06
2023-04-04T04:40:42.284Z,98480.69
2023-04-04T04:43:20.228Z,98499.72
2023-04-04T04:45:53.826Z,98503.84
2023-04-04T04:48:28.711Z,98421.91
2023-04-04T04:51:04.243Z,98514.03
2023-04-04T04:53:55.421Z,98480.00
2023-04-04T04:56:38.783Z,98504.75
2023-04-04T04:59:20.128Z,98500.47
2023-04-04T05:01:55.386Z,98514.00
2023-04-04T05:04:31.697Z,98507.00
2023-04-04T05:07:09.554Z,98521.84
2023-04-04T05:09:40.503Z,98528.13
2023-04-04T05:12:19.677Z,98480.16
2023-04-04T05:14:56.757Z,98527.06
2023-04-04T05:17:27.314Z,98525.84
2023-04-04T05:22:53.688Z,98514.50
2023-04-04T05:25:35.765Z,98531.75
2023-04-04T05:28:11.003Z,98537.72
2023-04-04T05:30:47.566Z,98535.66
2023-04-04T05:33:26.718Z,98545.91
2023-04-04T05:36:19.374Z,98538.78
2023-04-04T05:39:05.832Z,98550.13
2023-04-04T05:41:48.480Z,98550.44
2023-04-04T05:44:24.298Z,98545.19
2023-04-04T05:46:55.499Z,98549.72
2023-04-04T05:49:27.346Z,98549.91
2023-04-04T05:52:03.397Z,98555.75
2023-04-04T05:54:46.917Z,98554.91
2023-04-04T05:57:27.569Z,98564.69
2023-04-04T06:00:04.936Z,98538.69
2023-04-04T06:03:00.885Z,98559.28
2023-04-04T06:05:36.923Z,98561.66
2023-04-04T06:08:08.123Z,98556.50
2023-04-04T06:10:43.883Z,98553.81
2023-04-04T06:13:21.689Z,98557.94
2023-04-04T06:16:01.677Z,98561.47
2023-04-04T06:18:29.996Z,98542.47
2023-04-04T06:21:04.139Z,98565.38
2023-04-04T06:23:35.168Z,98551.75
2023-04-04T06:26:12.810Z,98557.53
2023-04-04T06:28:58.933Z,98499.59
2023-04-04T06:31:39.274Z,98555.66
2023-04-04T06:34:27.713Z,98523.47
2023-04-04T06:37:08.313Z,98555.66
2023-04-04T06:39:44.242Z,98550.97
2023-04-04T06:42:37.123Z,98542.69
2023-04-04T06:45:12.879Z,98558.59
2023-04-04T06:47:58.232Z,98539.94
2023-04-04T06:50:28.704Z,98541.69
2023-04-04T06:53:02.535Z,98538.19
2023-04-04T06:55:44.294Z,98549.72
2023-04-04T06:58:18.056Z,98549.72
2023-04-04T07:00:48.112Z,98548.19
2023-04-04T07:06:16.479Z,98538.56
2023-04-04T07:08:45.601Z,98550.47
2023-04-04T07:11:14.000Z,98545.31
2023-04-04T07:13:47.197Z,98552.41
2023-04-04T07:16:18.762Z,98539.19
2023-04-04T07:18:50.364Z,98529.31
2023-04-04T07:21:21.490Z,98514.47
2023-04-04T07:23:53.981Z,98535.38
2023-04-04T07:26:30.568Z,98538.47
2023-04-04T07:29:01.880Z,98519.47
2023-04-04T07:31:35.302Z,98534.34
2023-04-04T07:36:51.989Z,98529.16
2023-04-04T07:39:25.110Z,98523.41
2023-04-04T07:41:57.593Z,98527.50
2023-04-04T07:44:30.472Z,98544.91
2023-04-04T07:47:09.343Z,98540.81
2023-04-04T07:49:44.931Z,98529.47
2023-04-04T07:52:19.064Z,98539.41
2023-04-04T07:54:48.875Z,98516.66
2023-04-04T07:57:19.314Z,98547.38
2023-04-04T07:59:49.896Z,98539.69
2023-04-04T08:02:33.828Z,98544.13
2023-04-04T08:05:12.827Z,98522.13
2023-04-04T08:07:43.521Z,98532.31
2023-04-04T08:10:21.653Z,98534.25
2023-04-04T08:12:55.552Z,98529.03
2023-04-04T08:15:32.247Z,98545.19
2023-04-04T08:18:12.640Z,98528.47
2023-04-04T08:20:42.840Z,98529.84
2023-04-04T08:23:16.140Z,98515.84
2023-04-04T08:25:46.960Z,98516.13
2023-04-04T08:28:17.515Z,98513.66
2023-04-04T08:30:45.834Z,98516.41
2023-04-04T08:33:28.979Z,98517.78
2023-04-04T08:36:10.603Z,98515.00
2023-04-04T08:38:38.609Z,98532.03
2023-04-04T08:41:09.690Z,98512.53
2023-04-04T08:46:29.696Z,98488.88
2023-04-04T08:49:00.434Z,98484.72
2023-04-04T08:51:38.428Z,98493.66
2023-04-04T08:54:10.120Z,98487.97
2023-04-04T08:56:42.418Z,98499.97
2023-04-04T08:59:24.251Z,98481.41
2023-04-04T09:02:06.502Z,98486.84
2023-04-04T09:04:58.165Z,98484.63
2023-04-04T09:07:56.617Z,98497.44
2023-04-04T09:10:32.481Z,98478.63
2023-04-04T09:13:14.763Z,98480.28
2023-04-04T09:15:58.338Z,98479.81
2023-04-04T09:18:30.121Z,98478.66
2023-04-04T09:21:00.334Z,98468.63
2023-04-04T09:23:33.098Z,98472.91
2023-04-04T09:26:04.657Z,98446.69
2023-04-04T09:28:35.658Z,98458.91
2023-04-04T09:31:11.187Z,98460.03
2023-04-04T09:33:53.831Z,98437.91
2023-04-04T09:36:24.608Z,98428.81
2023-04-04T09:39:02.243Z,98455.59
2023-04-04T09:41:36.659Z,98457.41
2023-04-04T09:44:17.808Z,98448.22
2023-04-04T09:46:54.420Z,98436.69
2023-04-04T09:49:25.661Z,98446.81
2023-04-04T09:51:59.528Z,98432.22
2023-04-04T09:57:19.414Z,98425.19
2023-04-04T09:59:54.474Z,98424.06
2023-04-04T10:02:33.511Z,98432.63
2023-04-04T10:07:45.177Z,98412.34
2023-04-04T10:10:15.591Z,98374.53
2023-04-04T10:12:53.229Z,98423.19
2023-04-04T10:15:27.442Z,98407.56
2023-04-04T10:18:08.120Z,98394.00
2023-04-04T10:20:43.673Z,98410.66
2023-04-04T10:23:18.029Z,98409.56
2023-04-04T10:25:48.414Z,98411.50
2023-04-04T10:28:35.007Z,98399.81
2023-04-04T10:31:25.838Z,98404.41
2023-04-04T10:34:32.756Z,98411.63
2023-04-04T10:37:15.251Z,98390.94
2023-04-04T10:40:16.769Z,98404.81
2023-04-04T10:42:51.022Z,98383.72
2023-04-04T10:45:28.245Z,98394.16
2023-04-04T10:47:59.245Z,98355.56
2023-04-04T10:50:33.225Z,98386.81
2023-04-04T10:55:52.684Z,98375.53
2023-04-04T10:58:46.333Z,98366.34
2023-04-04T11:01:24.069Z,98378.91
2023-04-04T11:04:34.129Z,98364.91
2023-04-04T11:07:13.044Z,98375.56
2023-04-04T11:10:00.165Z,98375.84
2023-04-04T11:12:40.597Z,98379.66
2023-04-04T11:15:21.917Z,98368.66
2023-04-04T11:18:17.308Z,98366.44
2023-04-04T11:21:03.930Z,98353.22
2023-04-04T11:24:00.701Z,98368.25
2023-04-04T11:26:32.812Z,98339.03
2023-04-04T11:29:18.903Z,98335.84
2023-04-04T11:31:47.249Z,98347.13
2023-04-04T11:37:20.117Z,98346.47
2023-04-04T11:40:03.030Z,98329.75
2023-04-04T11:42:41.693Z,98325.91
2023-04-04T11:45:28.105Z,98329.94
2023-04-04T11:47:58.593Z,98331.66
2023-04-04T11:50:28.509Z,98330.78
2023-04-04T11:53:02.353Z,98323.28
2023-04-04T11:55:38.710Z,98312.69
2023-04-04T11:58:15.403Z,98304.34
2023-04-04T12:00:49.504Z,98304.03
2023-04-04T12:03:29.135Z,98303.34
2023-04-04T12:06:01.585Z,98306.47
2023-04-04T12:08:36.987Z,98310.81
2023-04-04T12:11:13.915Z,98304.44
2023-04-04T12:13:46.879Z,98293.06
2023-04-04T12:16:18.299Z,98286.72
2023-04-04T12:18:50.230Z,98294.47
2023-04-04T12:21:29.597Z,98273.06
2023-04-04T12:24:00.497Z,98287.50
2023-04-04T12:26:36.777Z,98283.88
2023-04-04T12:29:10.541Z,98270.09
2023-04-04T12:31:43.343Z,98284.81
2023-04-04T12:34:31.544Z,98266.03
2023-04-04T12:37:09.763Z,98233.66
2023-04-04T12:39:46.842Z,98275.13
2023-04-04T12:42:28.749Z,98275.09
2023-04-04T12:45:08.125Z,98275.97
2023-04-04T12:47:54.913Z,98253.50
2023-04-04T12:50:31.941Z,98270.75
2023-04-04T12:53:23.838Z,98278.31
2023-04-04T12:56:00.343Z,98270.22
2023-04-04T12:58:33.836Z,98268.50
2023-04-04T13:01:10.677Z,98262.06
2023-04-04T13:03:45.250Z,98264.59
2023-04-04T13:06:21.461Z,98264.59
2023-04-04T13:08:59.192Z,98246.25
2023-04-04T13:11:33.704Z,98259.59
2023-04-04T13:16:51.820Z,98242.06
2023-04-04T13:19:25.047Z,98236.44
2023-04-04T13:21:56.623Z,98249.28
2023-04-04T13:27:14.958Z,98232.56
2023-04-04T13:29:46.398Z,98230.59
2023-04-04T13:32:20.438Z,98233.44
2023-04-04T13:34:50.805Z,98228.63
2023-04-04T13:37:21.298Z,98236.53
2023-04-04T13:42:36.697Z,98236.69
2023-04-04T13:45:06.694Z,98234.84
2023-04-04T13:47:39.954Z,98233.06
2023-04-04T13:50:26.129Z,98228.78
2023-04-04T13:52:56.703Z,98236.75
2023-04-04T13:55:31.326Z,98224.94
2023-04-04T13:58:05.459Z,98226.78
2023-04-04T14:00:48.419Z,98218.41
2023-04-04T14:03:22.462Z,98223.00
2023-04-04T14:05:53.522Z,98220.78
2023-04-04T14:08:26.660Z,98221.44
2023-04-04T14:11:04.305Z,98207.47
2023-04-04T14:13:38.338Z,98214.41
2023-04-04T14:16:18.453Z,98217.34
2023-04-04T14:18:53.480Z,98201.44
2023-04-04T14:21:30.009Z,98199.09
2023-04-04T14:24:02.797Z,98195.69
2023-04-04T14:26:35.156Z,98211.38
2023-04-04T14:29:08.858Z,98222.88
2023-04-04T14:31:40.082Z,98221.53
2023-04-04T14:34:13.556Z,98201.19
2023-04-04T14:36:45.021Z,98228.97
2023-04-04T14:39:21.979Z,98206.03
2023-04-04T14:42:00.810Z,98223.56
2023-04-04T14:47:18.112Z,98235.59
2023-04-04T14:49:52.754Z,98229.28
2023-04-04T14:52:22.420Z,98215.00
2023-04-04T14:54:52.696Z,98232.97
2023-04-04T14:57:24.010Z,98226.88
2023-04-04T15:00:04.757Z,98226.72
2023-04-04T15:02:37.753Z,98228.56
2023-04-04T15:05:09.315Z,98236.31
2023-04-04T15:07:43.064Z,98231.56
2023-04-04T15:10:14.107Z,98208.91
2023-04-04T15:12:45.225Z,98230.38
2023-04-04T15:15:15.814Z,98232.06
2023-04-04T15:17:50.588Z,98229.84
2023-04-04T15:20:23.358Z,98228.97
2023-04-04T15:22:55.131Z,98234.88
2023-04-04T15:25:40.518Z,98229.94
2023-04-04T15:28:14.774Z,98237.72
2023-04-04T15:30:45.738Z,98243.09
2023-04-04T15:33:25.589Z,98253.44
2023-04-04T15:36:00.843Z,98239.53
2023-04-04T15:38:41.029Z,98244.66
2023-04-04T15:41:20.931Z,98240.47
2023-04-04T15:43:57.516Z,98265.16
2023-04-04T15:46:31.398Z,98255.78
2023-04-04T15:49:01.789Z,98254.59
2023-04-04T15:51:43.786Z,98256.78
2023-04-04T15:54:24.515Z,98255.16
2023-04-04T15:56:57.201Z,98259.09
2023-04-04T15:59:43.308Z,98249.84
2023-04-04T16:02:13.824Z,98263.72
2023-04-04T16:04:48.468Z,98260.06
2023-04-04T16:07:24.783Z,98262.75
2023-04-04T16:10:07.315Z,98273.81
2023-04-04T16:12:35.169Z,98264.66
2023-04-04T16:15:10.127Z,98274.28
2023-04-04T16:17:40.887Z,98256.22
2023-04-04T16:20:11.432Z,98285.94
2023-04-04T16:22:56.135Z,98280.59
2023-04-04T16:25:33.740Z,98279.50
2023-04-04T16:30:52.656Z,98295.47
2023-04-04T16:33:24.097Z,98292.88
2023-04-04T16:36:03.705Z,98239.81
2023-04-04T16:38:34.795Z,98302.31
2023-04-04T16:41:04.550Z,98299.31
2023-04-04T16:43:36.809Z,98293.50
2023-04-04T16:46:06.334Z,98294.22
2023-04-04T16:48:43.684Z,98286.34
2023-04-04T16:51:20.285Z,98299.75
2023-04-04T16:53:50.998Z,98305.66
2023-04-04T16:56:30.784Z,98314.53
2023-04-04T16:59:00.216Z,98314.53
2023-04-04T17:01:44.671Z,98315.59
2023-04-04T17:04:18.663Z,98318.94
2023-04-04T17:06:58.251Z,98322.84
2023-04-04T17:09:37.326Z,98312.03
2023-04-04T17:12:08.997Z,98304.22
2023-04-04T17:14:40.134Z,98335.97
2023-04-04T17:17:14.903Z,98337.44
2023-04-04T17:19:45.903Z,98339.09
2023-04-04T17:22:18.851Z,98341.84
2023-04-04T17:24:47.055Z,98353.28
2023-04-04T17:27:21.611Z,98329.72
2023-04-04T17:29:55.206Z,98345.97
2023-04-04T17:32:41.233Z,98361.25
2023-04-04T17:35:17.238Z,98357.25
2023-04-04T17:40:30.020Z,98356.78
2023-04-04T17:43:13.059Z,98380.72
2023-04-04T17:45:48.291Z,98385.03
2023-04-04T17:48:19.900Z,98377.78
2023-04-04T17:50:48.255Z,98399.78
2023-04-04T17:53:22.919Z,98368.59
2023-04-04T17:55:53.335Z,98404.50
2023-04-04T17:58:33.687Z,98404.72
2023-04-04T18:01:08.448Z,98402.19
2023-04-04T18:03:40.954Z,98400.13
2023-04-04T18:06:11.742Z,98416.59
2023-04-04T18:08:53.969Z,98426.53
2023-04-04T18:11:25.154Z,98428.22
2023-04-04T18:13:58.796Z,98431.72
2023-04-04T18:16:29.441Z,98438.34
2023-04-04T18:19:02.670Z,98431.81
2023-04-04T18:21:34.752Z,98444.47
2023-04-04T18:24:13.662Z,98429.41
2023-04-04T18:26:45.410Z,98454.88
2023-04-04T18:29:18.603Z,98459.56
2023-04-04T18:31:49.517Z,98466.66
2023-04-04T18:36:59.276Z,98474.09
2023-04-04T18:39:36.599Z,98475.25
2023-04-04T18:42:09.589Z,98464.53
2023-04-04T18:47:26.226Z,98485.94
2023-04-04T18:49:59.026Z,98493.09
2023-04-04T18:52:37.019Z,98494.72
2023-04-04T18:55:16.035Z,98498.03
2023-04-04T18:57:51.578Z,98508.72
2023-04-04T19:00:23.120Z,98504.06
2023-04-04T19:03:01.496Z,98510.63
2023-04-04T19:05:43.938Z,98517.78
2023-04-04T19:08:18.220Z,98519.69
2023-04-04T19:10:51.314Z,98522.44
2023-04-04T19:13:21.818Z,98525.44
2023-04-04T19:15:54.246Z,98526.03
2023-04-04T19:18:25.818Z,98536.41
2023-04-04T19:20:58.930Z,98516.41
2023-04-04T19:23:29.050Z,98543.00
2023-04-04T19:26:04.916Z,98543.00
2023-04-04T19:28:48.010Z,98536.94
2023-04-04T19:31:22.446Z,98552.34
2023-04-04T19:33:58.495Z,98548.16
2023-04-04T19:36:30.133Z,98553.41
2023-04-04T19:39:00.655Z,98520.44
2023-04-04T19:41:54.657Z,98478.94
2023-04-04T19:44:29.452Z,98560.19
2023-04-04T19:47:04.159Z,98539.59
2023-04-04T19:49:49.223Z,98562.91
2023-04-04T19:52:29.985Z,98563.75
2023-04-04T19:54:57.717Z,98557.97
2023-04-04T19:57:31.008Z,98558.25
2023-04-04T20:00:17.611Z,98543.72
2023-04-04T20:02:56.817Z,98566.69
2023-04-04T20:05:37.404Z,98564.84
2023-04-04T20:08:07.828Z,98574.16
2023-04-04T20:10:44.985Z,98570.09
2023-04-04T20:13:23.089Z,98576.06
2023-04-04T20:16:12.940Z,98578.81
2023-04-04T20:18:44.763Z,98584.84
2023-04-04T20:21:29.488Z,98583.47
2023-04-04T20:24:07.309Z,98555.63
2023-04-04T20:27:01.216Z,98591.88
2023-04-04T20:29:48.633Z,98588.78
2023-04-04T20:32:19.322Z,98589.41
2023-04-04T20:34:59.896Z,98602.84
2023-04-04T20:37:31.467Z,98596.53
2023-04-04T20:40:06.689Z,98596.78
2023-04-04T20:42:51.023Z,98596.25
2023-04-04T20:45:50.148Z,98599.28
2023-04-04T20:48:43.671Z,98573.19
2023-04-04T20:51:33.530Z,98595.03
2023-04-04T20:54:06.666Z,98609.31
2023-04-04T20:56:59.762Z,98602.00
2023-04-04T20:59:41.233Z,98605.47
2023-04-04T21:02:10.884Z,98609.34
2023-04-04T21:04:45.887Z,98598.16
2023-04-04T21:07:40.673Z,98606.97
2023-04-04T21:10:27.436Z,98615.72
2023-04-04T21:13:01.715Z,98611.53
2023-04-04T21:15:48.698Z,98573.69
2023-04-04T21:18:26.493Z,98610.22
2023-04-04T21:21:23.235Z,98606.50
2023-04-04T21:23:55.909Z,98628.09
2023-04-04T21:27:12.873Z,98620.78
2023-04-04T21:29:48.088Z,98611.41
2023-04-04T21:32:24.028Z,98605.94
2023-04-04T21:34:56.160Z,98614.16
2023-04-04T21:37:31.614Z,98614.13
2023-04-04T21:40:05.468Z,98623.63
2023-04-04T21:42:37.506Z,98621.88
2023-04-04T21:45:05.908Z,98610.16
2023-04-04T21:47:33.858Z,98608.22
2023-04-04T21:50:04.682Z,98618.41
2023-04-04T21:52:42.906Z,98610.00
2023-04-04T21:55:21.509Z,98627.13
2023-04-04T21:57:55.565Z,98624.94
2023-04-04T22:00:28.718Z,98623.75
2023-04-04T22:05:49.712Z,98627.19
2023-04-04T22:08:25.632Z,98629.13
2023-04-04T22:11:05.443Z,98630.47
2023-04-04T22:13:42.862Z,98633.25
2023-04-04T22:16:18.899Z,98574.56
2023-04-04T22:18:54.753Z,98612.47
2023-04-04T22:21:30.263Z,98633.53
2023-04-04T22:24:12.660Z,98632.63
2023-04-04T22:26:41.906Z,98633.78
2023-04-04T22:29:15.214Z,98622.97
2023-04-04T22:31:46.459Z,98633.13
2023-04-04T22:34:17.016Z,98627.25
2023-04-04T22:36:46.664Z,98632.22
2023-04-04T22:39:23.814Z,98630.63
2023-04-04T22:41:56.411Z,98628.16
2023-04-04T22:44:27.604Z,98638.81
2023-04-04T22:46:59.318Z,98623.78
2023-04-04T22:49:33.176Z,98628.72
2023-04-04T22:52:15.690Z,98626.66
2023-04-04T22:54:58.409Z,98634.59
2023-04-04T22:57:29.112Z,98629.25
2023-04-04T23:00:00.205Z,98622.56
2023-04-04T23:02:33.189Z,98628.16
2023-04-04T23:05:04.316Z,98625.78
2023-04-04T23:07:34.829Z,98629.28
2023-04-04T23:10:16.835Z,98625.53
2023-04-04T23:12:48.440Z,98619.84
2023-04-04T23:15:19.794Z,98635.13
2023-04-04T23:17:47.737Z,98637.59
2023-04-04T23:20:18.826Z,98633.00
2023-04-04T23:22:53.263Z,98640.25
2023-04-04T23:25:30.329Z,98638.53
2023-04-04T23:27:58.328Z,98633.56
2023-04-04T23:30:29.081Z,98634.16
2023-04-04T23:33:06.535Z,98643.97
2023-04-04T23:35:36.359Z,98635.13
2023-04-04T23:38:07.459Z,98636.69
2023-04-04T23:40:44.949Z,98628.59
2023-04-04T23:43:15.920Z,98640.09
2023-04-04T23:45:47.607Z,98632.31
2023-04-04T23:51:06.661Z,98633.63
2023-04-04T23:53:46.812Z,98626.53
2023-04-04T23:56:20.406Z,98626.25
2023-04-04T23:58:50.749Z,98633.72
